DEAGJ EDLW-EDKS

Flight info

Callsign DEAGJ
Flight time N/A
Altitude
Route DCT
Aircraft C152

Departure

Time 2026-04-29 12:32
Airport Dortmund Airport (EDLW)

Arrival

Time N/A
Airport EDKS
Time Latitude Longitude Altitude Speed Heading
2026-04-29 12:23 51.51257 7.60541 456 ft 0 kts 102°
2026-04-29 12:24 51.51256 7.60542 456 ft 1 kts 92°
2026-04-29 12:24 51.51278 7.60533 452 ft 13 kts 242°
2026-04-29 12:24 51.51222 7.60373 452 ft 17 kts 240°
2026-04-29 12:24 51.51160 7.60229 456 ft 14 kts 240°
2026-04-29 12:25 51.51205 7.60184 448 ft 16 kts 66°
2026-04-29 12:25 51.51270 7.60372 433 ft 22 kts 60°
2026-04-29 12:25 51.51432 7.60829 432 ft 24 kts 59°
2026-04-29 12:26 51.51498 7.61018 428 ft 14 kts 60°
2026-04-29 12:26 51.51551 7.61054 427 ft 11 kts 339°
2026-04-29 12:26 51.51551 7.60937 426 ft 13 kts 238°
2026-04-29 12:26 51.51500 7.60794 417 ft 16 kts 240°
2026-04-29 12:27 51.51478 7.60731 423 ft 4 kts 242°
2026-04-29 12:27 51.51442 7.60629 424 ft 15 kts 242°
2026-04-29 12:27 51.51430 7.60596 422 ft 0 kts 242°
2026-04-29 12:30 51.51417 7.60556 421 ft 17 kts 240°
2026-04-29 12:30 51.51360 7.60330 426 ft 23 kts 290°
2026-04-29 12:30 51.51490 7.60256 418 ft 22 kts 41°
2026-04-29 12:30 51.51519 7.60333 419 ft 0 kts 59°
2026-04-29 12:31 51.51559 7.60449 421 ft 37 kts 61°
2026-04-29 12:32 51.51763 7.61036 434 ft 76 kts 62°
2026-04-29 12:32 51.51979 7.61773 666 ft 71 kts 66°
2026-04-29 12:32 51.52164 7.62501 877 ft 69 kts 70°
2026-04-29 12:32 51.52232 7.63252 1094 ft 69 kts 97°
2026-04-29 12:33 51.52111 7.64011 1314 ft 71 kts 107°
2026-04-29 12:33 51.51958 7.64793 1505 ft 73 kts 111°
2026-04-29 12:33 51.51751 7.65589 1662 ft 84 kts 111°
2026-04-29 12:33 51.51545 7.66487 1696 ft 86 kts 114°
2026-04-29 12:34 51.51281 7.67331 1753 ft 85 kts 123°
2026-04-29 12:34 51.50916 7.68041 1801 ft 84 kts 134°
2026-04-29 12:34 51.50505 7.68715 1834 ft 85 kts 138°
2026-04-29 12:34 51.50056 7.69331 1854 ft 85 kts 144°
2026-04-29 12:35 51.49556 7.69850 1870 ft 87 kts 152°
2026-04-29 12:35 51.49008 7.70284 1875 ft 88 kts 157°
2026-04-29 12:35 51.48467 7.70662 1939 ft 83 kts 157°
2026-04-29 12:35 51.47927 7.71045 1954 ft 87 kts 158°
2026-04-29 12:36 51.47364 7.71410 1925 ft 87 kts 161°
2026-04-29 12:36 51.46788 7.71723 1980 ft 88 kts 164°
2026-04-29 12:36 51.46165 7.71859 1933 ft 90 kts 189°
2026-04-29 12:36 51.45628 7.71452 1686 ft 86 kts 222°
2026-04-29 12:37 51.45015 7.70974 1111 ft 102 kts 197°
2026-04-29 12:37 51.44374 7.70634 848 ft 91 kts 201°
2026-04-29 12:37 51.43816 7.70242 532 ft 75 kts 223°
2026-04-29 12:37 51.43532 7.69826 518 ft 40 kts 226°